createdAt,value
2023-03-22T00:00:24.767Z,100674.25
2023-03-22T00:01:30.942Z,100677.88
2023-03-22T00:02:56.124Z,100670.03
2023-03-22T00:04:17.739Z,100664.72
2023-03-22T00:05:40.906Z,100666.53
2023-03-22T00:07:03.402Z,100660.38
2023-03-22T00:08:26.017Z,100658.69
2023-03-22T00:09:48.567Z,100663.31
2023-03-22T00:11:13.061Z,100660.78
2023-03-22T00:12:34.580Z,100666.38
2023-03-22T00:13:58.671Z,100663.03
2023-03-22T00:15:20.275Z,100666.66
2023-03-22T00:16:42.738Z,100658.78
2023-03-22T00:18:06.946Z,100658.91
2023-03-22T00:19:30.042Z,100657.22
2023-03-22T00:20:53.148Z,100658.34
2023-03-22T00:22:16.118Z,100651.47
2023-03-22T00:23:37.669Z,100658.88
2023-03-22T00:25:00.268Z,100652.03
2023-03-22T00:26:22.956Z,100654.81
2023-03-22T00:27:44.661Z,100657.63
2023-03-22T00:29:07.226Z,100656.91
2023-03-22T00:30:28.820Z,100650.88
2023-03-22T00:31:51.934Z,100643.88
2023-03-22T00:33:14.846Z,100642.50
2023-03-22T00:34:38.127Z,100643.47
2023-03-22T00:36:03.381Z,100645.53
2023-03-22T00:37:27.939Z,100637.84
2023-03-22T00:38:50.510Z,100634.50
2023-03-22T00:40:13.941Z,100628.44
2023-03-22T00:41:36.552Z,100631.25
2023-03-22T00:42:58.077Z,100627.88
2023-03-22T00:44:20.690Z,100628.88
2023-03-22T00:45:43.104Z,100620.91
2023-03-22T00:47:05.752Z,100625.38
2023-03-22T00:48:28.881Z,100620.03
2023-03-22T00:49:51.425Z,100619.31
2023-03-22T00:51:15.403Z,100616.81
2023-03-22T00:52:36.924Z,100617.78
2023-03-22T00:53:59.426Z,100612.47
2023-03-22T00:55:20.989Z,100610.66
2023-03-22T00:56:45.360Z,100613.31
2023-03-22T00:58:06.922Z,100616.81
2023-03-22T00:59:29.415Z,100608.00
2023-03-22T01:00:51.525Z,100609.69
2023-03-22T01:02:14.677Z,100609.69
2023-03-22T01:03:38.684Z,100610.50
2023-03-22T01:05:01.238Z,100606.03
2023-03-22T01:06:22.906Z,100607.59
2023-03-22T01:07:45.705Z,100608.28
2023-03-22T01:09:08.306Z,100603.66
2023-03-22T01:10:31.019Z,100606.19
2023-03-22T01:11:53.500Z,100602.69
2023-03-22T01:13:17.895Z,100604.38
2023-03-22T01:14:40.846Z,100597.38
2023-03-22T01:16:03.356Z,100594.84
2023-03-22T01:17:24.910Z,100595.13
2023-03-22T01:18:48.752Z,100597.94
2023-03-22T01:20:11.621Z,100591.19
2023-03-22T01:21:34.115Z,100592.31
2023-03-22T01:22:56.562Z,100586.44
2023-03-22T01:24:18.067Z,100584.16
2023-03-22T01:25:40.807Z,100586.25
2023-03-22T01:27:02.384Z,100585.56
2023-03-22T01:28:27.033Z,100584.97
2023-03-22T01:29:49.839Z,100580.78
2023-03-22T01:31:11.561Z,100572.09
2023-03-22T01:32:34.293Z,100579.34
2023-03-22T01:33:58.130Z,100575.16
2023-03-22T01:35:21.069Z,100576.13
2023-03-22T01:36:44.835Z,100577.25
2023-03-22T01:38:08.126Z,100572.91
2023-03-22T01:39:09.711Z,100569.53
2023-03-22T01:40:13.378Z,100574.00
2023-03-22T01:41:20.345Z,100564.34
2023-03-22T01:42:23.524Z,100560.84
2023-03-22T01:43:26.570Z,100559.19
2023-03-22T01:44:31.429Z,100560.16
2023-03-22T01:45:40.224Z,100561.13
2023-03-22T01:46:44.699Z,100555.00
2023-03-22T01:47:51.649Z,100553.28
2023-03-22T01:48:54.436Z,100553.41
2023-03-22T01:49:57.303Z,100555.22
2023-03-22T01:51:05.388Z,100551.75
2023-03-22T01:52:11.088Z,100546.56
2023-03-22T01:53:18.921Z,100551.03
2023-03-22T01:54:26.576Z,100550.34
2023-03-22T01:55:28.306Z,100544.28
2023-03-22T01:56:35.566Z,100546.94
2023-03-22T01:57:38.349Z,100544.28
2023-03-22T01:58:41.968Z,100541.78
2023-03-22T01:59:44.900Z,100539.25
2023-03-22T02:00:50.652Z,100544.56
2023-03-22T02:01:52.156Z,100538.44
2023-03-22T02:02:54.926Z,100539.41
2023-03-22T02:04:03.434Z,100542.31
2023-03-22T02:05:07.068Z,100537.88
2023-03-22T02:06:09.793Z,100535.31
2023-03-22T02:07:15.391Z,100533.50
2023-03-22T02:08:18.117Z,100536.16
2023-03-22T02:09:22.133Z,100534.47
2023-03-22T02:10:27.962Z,100532.81
2023-03-22T02:11:41.454Z,100531.13
2023-03-22T02:12:55.970Z,100531.97
2023-03-22T02:14:27.292Z,100523.16
2023-03-22T02:15:34.672Z,100523.16
2023-03-22T02:16:48.457Z,100519.66
2023-03-22T02:18:06.211Z,100526.66
2023-03-22T02:19:33.491Z,100521.19
2023-03-22T02:20:55.206Z,100517.47
2023-03-22T02:22:21.712Z,100514.66
2023-03-22T02:23:55.283Z,100510.88
2023-03-22T02:25:30.227Z,100514.38
2023-03-22T02:27:18.406Z,100510.75
2023-03-22T02:28:37.802Z,100512.69
2023-03-22T02:29:45.875Z,100508.22
2023-03-22T02:31:02.338Z,100500.41
2023-03-22T02:32:37.403Z,100498.72
2023-03-22T02:34:01.387Z,100499.84
2023-03-22T02:35:34.267Z,100495.63
2023-03-22T02:37:01.671Z,100494.22
2023-03-22T02:38:57.629Z,100497.84
2023-03-22T02:40:09.840Z,100490.13
2023-03-22T02:41:23.680Z,100487.75
2023-03-22T02:42:37.633Z,100490.53
2023-03-22T02:43:48.024Z,100482.72
2023-03-22T02:44:59.762Z,100479.38
2023-03-22T02:46:08.105Z,100488.28
2023-03-22T02:47:21.509Z,100477.66
2023-03-22T02:48:27.967Z,100480.44
2023-03-22T02:49:37.257Z,100478.91
2023-03-22T02:50:43.256Z,100483.38
2023-03-22T02:51:49.822Z,100483.38
2023-03-22T02:52:56.085Z,100478.22
2023-03-22T02:54:15.350Z,100478.22
2023-03-22T02:55:24.146Z,100479.28
2023-03-22T02:56:32.264Z,100485.44
2023-03-22T02:57:40.899Z,100472.31
2023-03-22T02:58:47.043Z,100479.28
2023-03-22T02:59:51.550Z,100475.94
2023-03-22T03:00:59.388Z,100479.44
2023-03-22T03:02:05.467Z,100478.59
2023-03-22T03:03:11.759Z,100472.44
2023-03-22T03:04:20.371Z,100474.41
2023-03-22T03:05:25.116Z,100477.06
2023-03-22T03:06:35.598Z,100476.19
2023-03-22T03:07:38.602Z,100476.19
2023-03-22T03:08:42.035Z,100479.78
2023-03-22T03:09:51.490Z,100477.13
2023-03-22T03:10:55.911Z,100472.81
2023-03-22T03:11:57.451Z,100479.22
2023-03-22T03:13:13.462Z,100480.91
2023-03-22T03:14:23.665Z,100480.06
2023-03-22T03:15:26.898Z,100478.41
2023-03-22T03:16:34.792Z,100473.09
2023-03-22T03:17:50.557Z,100485.53
2023-03-22T03:19:00.059Z,100484.78
2023-03-22T03:20:29.911Z,100480.31
2023-03-22T03:21:42.427Z,100478.63
2023-03-22T03:22:57.365Z,100473.47
2023-03-22T03:24:11.286Z,100468.28
2023-03-22T03:25:25.017Z,100477.09
2023-03-22T03:26:40.444Z,100471.94
2023-03-22T03:27:50.877Z,100468.56
2023-03-22T03:28:59.360Z,100473.88
2023-03-22T03:30:10.029Z,100477.50
2023-03-22T03:31:27.022Z,100477.63
2023-03-22T03:32:35.163Z,100474.13
2023-03-22T03:33:52.869Z,100465.31
2023-03-22T03:34:58.767Z,100466.31
2023-03-22T03:36:04.385Z,100464.63
2023-03-22T03:37:21.820Z,100469.94
2023-03-22T03:38:27.648Z,100457.78
2023-03-22T03:39:34.349Z,100464.03
2023-03-22T03:40:47.712Z,100457.91
2023-03-22T03:41:56.055Z,100459.69
2023-03-22T03:43:02.500Z,100456.22
2023-03-22T03:44:06.050Z,100455.38
2023-03-22T03:45:09.837Z,100460.69
2023-03-22T03:46:13.366Z,100459.84
2023-03-22T03:47:16.287Z,100454.53
2023-03-22T03:48:22.169Z,100453.69
2023-03-22T03:49:24.333Z,100455.50
2023-03-22T03:50:27.981Z,100455.50
2023-03-22T03:51:29.577Z,100455.66
2023-03-22T03:52:32.080Z,100468.78
2023-03-22T03:53:33.959Z,100468.78
2023-03-22T03:54:36.521Z,100459.97
2023-03-22T03:55:38.102Z,100462.63
2023-03-22T03:56:40.599Z,100466.13
2023-03-22T03:57:53.510Z,100461.78
2023-03-22T03:58:56.477Z,100460.13
2023-03-22T03:59:58.037Z,100460.97
2023-03-22T04:01:00.637Z,100465.41
2023-03-22T04:02:03.283Z,100459.38
2023-03-22T04:03:06.223Z,100461.22
2023-03-22T04:04:09.473Z,100457.72
2023-03-22T04:05:11.928Z,100469.31
2023-03-22T04:06:15.778Z,100461.34
2023-03-22T04:07:17.562Z,100465.69
2023-03-22T04:08:20.087Z,100467.59
2023-03-22T04:09:21.647Z,100465.94
2023-03-22T04:10:24.221Z,100465.94
2023-03-22T04:11:26.578Z,100473.75
2023-03-22T04:12:29.085Z,100465.94
2023-03-22T04:13:32.068Z,100470.25
2023-03-22T04:14:34.539Z,100467.59
2023-03-22T04:15:36.075Z,100464.00
2023-03-22T04:16:38.782Z,100458.69
2023-03-22T04:17:43.186Z,100464.00
2023-03-22T04:18:53.145Z,100455.34
2023-03-22T04:19:58.390Z,100461.47
2023-03-22T04:21:00.905Z,100461.47
2023-03-22T04:22:02.590Z,100465.94
2023-03-22T04:23:05.146Z,100459.81
2023-03-22T04:24:07.533Z,100457.25
2023-03-22T04:25:13.370Z,100465.22
2023-03-22T04:26:15.258Z,100461.72
2023-03-22T04:27:18.141Z,100456.56
2023-03-22T04:28:20.220Z,100460.06
2023-03-22T04:29:24.415Z,100459.22
2023-03-22T04:30:27.330Z,100455.84
2023-03-22T04:31:29.332Z,100455.84
2023-03-22T04:32:31.887Z,100448.03
2023-03-22T04:33:39.153Z,100447.19
2023-03-22T04:34:41.650Z,100442.72
2023-03-22T04:35:56.649Z,100451.53
2023-03-22T04:37:02.256Z,100448.88
2023-03-22T04:38:04.786Z,100438.25
2023-03-22T04:39:08.651Z,100443.41
2023-03-22T04:40:16.494Z,100446.91
2023-03-22T04:41:18.840Z,100443.31
2023-03-22T04:42:21.959Z,100442.56
2023-03-22T04:43:34.838Z,100444.25
2023-03-22T04:44:38.817Z,100439.91
2023-03-22T04:45:41.948Z,100443.41
2023-03-22T04:46:44.766Z,100446.06
2023-03-22T04:47:56.379Z,100450.53
2023-03-22T04:48:59.613Z,100448.72
2023-03-22T04:50:01.159Z,100448.59
2023-03-22T04:51:04.014Z,100452.81
2023-03-22T04:52:05.581Z,100449.19
2023-03-22T04:53:09.691Z,100441.94
2023-03-22T04:54:11.367Z,100442.78
2023-03-22T04:55:14.195Z,100443.47
2023-03-22T04:56:15.697Z,100443.19
2023-03-22T04:57:18.200Z,100444.78
2023-03-22T04:58:22.017Z,100452.59
2023-03-22T04:59:24.544Z,100441.00
2023-03-22T05:00:30.101Z,100441.00
2023-03-22T05:01:34.702Z,100440.84
2023-03-22T05:02:41.092Z,100443.50
2023-03-22T05:03:45.427Z,100454.00
2023-03-22T05:04:53.005Z,100449.56
2023-03-22T05:05:57.182Z,100446.06
2023-03-22T05:07:08.745Z,100440.84
2023-03-22T05:08:14.243Z,100431.09
2023-03-22T05:09:16.049Z,100432.78
2023-03-22T05:10:18.639Z,100432.66
2023-03-22T05:11:20.316Z,100434.31
2023-03-22T05:12:32.991Z,100430.56
2023-03-22T05:13:44.857Z,100440.22
2023-03-22T05:14:57.513Z,100436.44
2023-03-22T05:16:00.668Z,100438.13
2023-03-22T05:17:09.651Z,100437.28
2023-03-22T05:18:24.539Z,100438.97
2023-03-22T05:19:27.519Z,100435.34
2023-03-22T05:20:32.658Z,100440.66
2023-03-22T05:21:36.723Z,100444.97
2023-03-22T05:22:40.300Z,100440.41
2023-03-22T05:23:43.319Z,100440.25
2023-03-22T05:24:45.454Z,100446.41
2023-03-22T05:25:58.634Z,100440.97
2023-03-22T05:27:00.976Z,100447.94
2023-03-22T05:28:03.555Z,100453.00
2023-03-22T05:29:05.528Z,100445.78
2023-03-22T05:30:09.833Z,100456.25
2023-03-22T05:31:14.510Z,100453.31
2023-03-22T05:32:18.259Z,100459.34
2023-03-22T05:33:21.723Z,100454.75
2023-03-22T05:34:24.607Z,100450.16
2023-03-22T05:35:26.613Z,100450.84
2023-03-22T05:36:29.685Z,100451.69
2023-03-22T05:37:31.916Z,100448.88
2023-03-22T05:38:44.813Z,100447.81
2023-03-22T05:39:46.385Z,100446.97
2023-03-22T05:40:49.236Z,100443.19
2023-03-22T05:41:50.844Z,100441.38
2023-03-22T05:42:54.092Z,100442.34
2023-03-22T05:43:55.772Z,100445.97
2023-03-22T05:44:58.241Z,100439.69
2023-03-22T05:46:01.088Z,100440.66
2023-03-22T05:47:14.972Z,100445.00
2023-03-22T05:48:16.758Z,100444.88
2023-03-22T05:49:19.428Z,100443.88
2023-03-22T05:50:23.139Z,100446.41
2023-03-22T05:51:25.809Z,100448.09
2023-03-22T05:52:27.529Z,100440.81
2023-03-22T05:53:31.782Z,100441.53
2023-03-22T05:54:33.473Z,100443.09
2023-03-22T05:55:36.005Z,100445.59
2023-03-22T05:56:39.707Z,100440.00
2023-03-22T05:57:42.386Z,100439.03
2023-03-22T05:58:44.805Z,100438.88
2023-03-22T05:59:47.334Z,100436.94
2023-03-22T06:00:49.865Z,100438.50
2023-03-22T06:01:52.690Z,100442.00
2023-03-22T06:02:56.379Z,100439.19
2023-03-22T06:03:58.923Z,100439.19
2023-03-22T06:05:00.506Z,100432.91
2023-03-22T06:06:06.610Z,100437.25
2023-03-22T06:07:08.361Z,100442.41
2023-03-22T06:08:10.906Z,100438.78
2023-03-22T06:09:17.623Z,100431.66
2023-03-22T06:10:20.683Z,100441.28
2023-03-22T06:11:22.763Z,100450.81
2023-03-22T06:12:27.238Z,100449.81
2023-03-22T06:13:30.374Z,100448.16
2023-03-22T06:14:32.961Z,100452.47
2023-03-22T06:15:34.574Z,100446.34
2023-03-22T06:16:37.098Z,100454.31
2023-03-22T06:17:38.778Z,100448.16
2023-03-22T06:18:52.226Z,100453.59
2023-03-22T06:20:09.187Z,100452.06
2023-03-22T06:21:11.824Z,100452.19
2023-03-22T06:22:13.905Z,100449.81
2023-03-22T06:23:17.749Z,100452.63
2023-03-22T06:24:19.607Z,100452.75
2023-03-22T06:25:22.361Z,100450.22
2023-03-22T06:26:23.947Z,100447.56
2023-03-22T06:27:26.578Z,100452.03
2023-03-22T06:28:29.800Z,100448.44
2023-03-22T06:29:32.781Z,100447.56
2023-03-22T06:30:34.408Z,100446.47
2023-03-22T06:31:37.034Z,100451.78
2023-03-22T06:32:38.800Z,100444.50
2023-03-22T06:33:41.499Z,100442.56
2023-03-22T06:34:51.196Z,100442.56
2023-03-22T06:35:53.942Z,100440.59
2023-03-22T06:36:56.167Z,100439.47
2023-03-22T06:37:58.815Z,100441.03
2023-03-22T06:39:00.971Z,100432.91
2023-03-22T06:40:03.766Z,100436.25
2023-03-22T06:41:07.414Z,100432.50
2023-03-22T06:42:09.436Z,100429.69
2023-03-22T06:43:11.934Z,100435.84
2023-03-22T06:44:14.543Z,100434.72
2023-03-22T06:45:17.606Z,100442.59
2023-03-22T06:46:19.204Z,100433.66
2023-03-22T06:47:22.127Z,100444.13
2023-03-22T06:48:23.820Z,100434.34
2023-03-22T06:49:26.455Z,100436.03
2023-03-22T06:50:44.057Z,100435.88
2023-03-22T06:51:45.968Z,100438.41
2023-03-22T06:52:48.466Z,100436.44
2023-03-22T06:53:50.135Z,100434.47
2023-03-22T06:54:52.705Z,100432.53
2023-03-22T06:56:02.142Z,100427.91
2023-03-22T06:57:05.397Z,100434.22
2023-03-22T06:58:07.798Z,100425.13
2023-03-22T06:59:10.439Z,100430.28
2023-03-22T07:00:13.608Z,100433.78
2023-03-22T07:01:19.927Z,100425.69
2023-03-22T07:02:21.550Z,100431.69
2023-03-22T07:03:24.203Z,100428.06
2023-03-22T07:04:27.688Z,100430.56
2023-03-22T07:05:32.252Z,100425.09
2023-03-22T07:06:35.135Z,100424.13
2023-03-22T07:07:37.647Z,100428.34
2023-03-22T07:08:44.450Z,100423.69
2023-03-22T07:09:56.967Z,100415.44
2023-03-22T07:11:01.022Z,100409.00
2023-03-22T07:12:06.951Z,100414.88
2023-03-22T07:13:08.929Z,100414.59
2023-03-22T07:14:11.565Z,100420.47
2023-03-22T07:15:13.149Z,100426.22
2023-03-22T07:16:18.109Z,100418.78
2023-03-22T07:17:21.007Z,100419.34
2023-03-22T07:18:23.816Z,100415.56
2023-03-22T07:19:25.997Z,100422.13
2023-03-22T07:20:41.303Z,100420.88
2023-03-22T07:21:44.359Z,100424.94
2023-03-22T07:22:46.916Z,100422.97
2023-03-22T07:23:48.449Z,100426.06
2023-03-22T07:24:57.215Z,100415.13
2023-03-22T07:26:00.967Z,100424.47
2023-03-22T07:27:03.883Z,100423.22
2023-03-22T07:28:06.884Z,100415.78
2023-03-22T07:29:09.855Z,100414.34
2023-03-22T07:30:12.265Z,100415.75
2023-03-22T07:31:16.053Z,100414.47
2023-03-22T07:32:18.684Z,100416.84
2023-03-22T07:33:20.269Z,100424.53
2023-03-22T07:34:23.188Z,100408.44
2023-03-22T07:35:26.862Z,100416.97
2023-03-22T07:36:29.722Z,100405.19
2023-03-22T07:37:33.639Z,100416.38
2023-03-22T07:38:35.604Z,100420.69
2023-03-22T07:39:38.349Z,100411.59
2023-03-22T07:40:40.220Z,100412.13
2023-03-22T07:41:42.838Z,100417.16
2023-03-22T07:42:44.467Z,100414.50
2023-03-22T07:44:07.881Z,100416.16
2023-03-22T07:45:26.176Z,100417.16
2023-03-22T07:46:42.611Z,100412.94
2023-03-22T07:47:44.862Z,100418.44
2023-03-22T07:48:47.439Z,100421.09
2023-03-22T07:49:50.109Z,100415.78
2023-03-22T07:50:55.767Z,100425.59
2023-03-22T07:51:58.642Z,100420.25
2023-03-22T07:53:01.663Z,100416.06
2023-03-22T07:54:07.067Z,100417.06
2023-03-22T07:55:10.905Z,100424.19
2023-03-22T07:56:14.892Z,100418.03
2023-03-22T07:57:17.486Z,100423.34
2023-03-22T07:58:19.199Z,100427.03
2023-03-22T07:59:22.564Z,100435.69
2023-03-22T08:00:25.622Z,100430.38
2023-03-22T08:01:30.535Z,100430.38
2023-03-22T08:02:45.940Z,100433.88
2023-03-22T08:03:50.752Z,100432.06
2023-03-22T08:04:56.160Z,100436.38
2023-03-22T08:06:03.004Z,100441.56
2023-03-22T08:07:05.748Z,100435.41
2023-03-22T08:08:19.615Z,100440.72
2023-03-22T08:09:21.364Z,100442.53
2023-03-22T08:10:23.970Z,100436.38
2023-03-22T08:11:26.590Z,100433.59
2023-03-22T08:12:28.140Z,100435.41
2023-03-22T08:13:30.936Z,100438.91
2023-03-22T08:14:36.539Z,100433.44
2023-03-22T08:15:40.026Z,100441.28
2023-03-22T08:16:44.001Z,100442.13
2023-03-22T08:17:46.580Z,100434.81
2023-03-22T08:18:49.130Z,100444.47
2023-03-22T08:19:51.528Z,100438.19
2023-03-22T08:20:54.758Z,100433.66
2023-03-22T08:21:56.335Z,100443.22
2023-03-22T08:22:58.873Z,100440.38
2023-03-22T08:24:02.984Z,100435.06
2023-03-22T08:25:05.386Z,100444.56
2023-03-22T08:26:08.009Z,100437.28
2023-03-22T08:27:20.831Z,100446.97
2023-03-22T08:28:22.781Z,100435.47
2023-03-22T08:29:25.565Z,100441.63
2023-03-22T08:30:38.242Z,100436.31
2023-03-22T08:31:51.754Z,100448.78
2023-03-22T08:32:53.331Z,100445.97
2023-03-22T08:33:56.555Z,100437.84
2023-03-22T08:34:58.207Z,100440.34
2023-03-22T08:36:07.949Z,100440.75
2023-03-22T08:37:11.961Z,100436.94
2023-03-22T08:38:14.666Z,100439.47
2023-03-22T08:39:18.665Z,100440.16
2023-03-22T08:40:20.338Z,100439.16
2023-03-22T08:41:23.551Z,100449.81
2023-03-22T08:42:25.378Z,100440.16
2023-03-22T08:43:28.156Z,100451.47
2023-03-22T08:44:30.295Z,100444.19
2023-03-22T08:45:32.886Z,100445.72
2023-03-22T08:46:35.765Z,100436.56
2023-03-22T08:47:38.343Z,100437.28
2023-03-22T08:48:51.363Z,100437.78
2023-03-22T08:49:53.181Z,100439.34
2023-03-22T08:50:55.982Z,100438.03
2023-03-22T08:51:57.612Z,100439.41
2023-03-22T08:53:00.871Z,100427.50
2023-03-22T08:54:08.025Z,100438.41
2023-03-22T08:55:11.237Z,100429.97
2023-03-22T08:56:14.866Z,100423.19
2023-03-22T08:57:16.906Z,100422.88
2023-03-22T08:58:20.549Z,100426.75
2023-03-22T08:59:23.822Z,100420.28
2023-03-22T09:00:27.607Z,100412.78
2023-03-22T09:01:35.233Z,100426.53
2023-03-22T09:02:37.437Z,100415.53
2023-03-22T09:03:40.390Z,100430.56
2023-03-22T09:04:42.266Z,100431.25
2023-03-22T09:05:45.165Z,100428.25
2023-03-22T09:06:46.980Z,100431.47
2023-03-22T09:08:06.098Z,100422.31
2023-03-22T09:09:09.019Z,100423.69
2023-03-22T09:10:13.061Z,100426.88
2023-03-22T09:11:24.521Z,100427.72
2023-03-22T09:12:26.228Z,100422.22
2023-03-22T09:13:30.534Z,100428.38
2023-03-22T09:14:32.092Z,100422.06
2023-03-22T09:15:34.631Z,100421.91
2023-03-22T09:16:41.808Z,100417.41
2023-03-22T09:17:44.676Z,100414.06
2023-03-22T09:18:46.481Z,100430.38
2023-03-22T09:20:02.722Z,100421.69
2023-03-22T09:21:13.099Z,100422.53
2023-03-22T09:22:14.771Z,100423.06
2023-03-22T09:23:17.791Z,100419.94
2023-03-22T09:24:20.379Z,100425.50
2023-03-22T09:25:24.287Z,100417.84
2023-03-22T09:26:27.062Z,100419.19
2023-03-22T09:27:34.208Z,100420.88
2023-03-22T09:28:36.563Z,100431.25
2023-03-22T09:29:39.577Z,100431.25
2023-03-22T09:30:44.893Z,100429.56
2023-03-22T09:31:48.931Z,100422.53
2023-03-22T09:32:53.121Z,100420.88
2023-03-22T09:33:55.240Z,100423.69
2023-03-22T09:34:57.758Z,100417.53
2023-03-22T09:35:59.596Z,100412.50
2023-03-22T09:37:04.056Z,100411.66
2023-03-22T09:38:06.497Z,100411.81
2023-03-22T09:39:10.023Z,100407.47
2023-03-22T09:40:12.744Z,100413.78
2023-03-22T09:41:22.026Z,100412.13
2023-03-22T09:42:32.172Z,100412.28
2023-03-22T09:43:37.832Z,100416.25
2023-03-22T09:44:43.991Z,100417.41
2023-03-22T09:45:54.240Z,100426.44
2023-03-22T09:46:59.945Z,100418.09
2023-03-22T09:48:06.976Z,100424.78
2023-03-22T09:49:15.037Z,100422.66
2023-03-22T09:50:21.816Z,100418.34
2023-03-22T09:51:37.519Z,100422.22
2023-03-22T09:52:40.709Z,100418.25
2023-03-22T09:53:42.286Z,100424.97
2023-03-22T09:54:47.562Z,100418.31
2023-03-22T09:55:56.854Z,100417.03
2023-03-22T09:57:06.783Z,100422.03
2023-03-22T09:58:21.869Z,100420.56
2023-03-22T09:59:32.548Z,100422.31
2023-03-22T10:00:43.275Z,100403.97
2023-03-22T10:01:52.522Z,100405.16
2023-03-22T10:03:01.586Z,100407.34
2023-03-22T10:04:26.140Z,100394.50
2023-03-22T10:05:35.420Z,100398.53
2023-03-22T10:06:38.482Z,100400.88
2023-03-22T10:07:52.401Z,100397.88
2023-03-22T10:09:06.107Z,100401.25
2023-03-22T10:10:12.822Z,100387.72
2023-03-22T10:11:23.927Z,100385.56
2023-03-22T10:12:31.339Z,100395.25
2023-03-22T10:13:41.940Z,100394.09
2023-03-22T10:14:51.579Z,100389.91
2023-03-22T10:16:08.310Z,100392.59
2023-03-22T10:17:16.686Z,100403.09
2023-03-22T10:18:23.246Z,100397.41
2023-03-22T10:19:31.813Z,100398.63
2023-03-22T10:20:41.262Z,100393.09
2023-03-22T10:21:47.654Z,100392.25
2023-03-22T10:22:53.957Z,100392.97
2023-03-22T10:24:02.084Z,100392.78
2023-03-22T10:25:11.173Z,100391.63
2023-03-22T10:26:21.405Z,100392.16
2023-03-22T10:27:31.014Z,100389.97
2023-03-22T10:28:40.266Z,100389.47
2023-03-22T10:29:47.913Z,100383.81
2023-03-22T10:30:57.384Z,100390.50
2023-03-22T10:32:13.653Z,100387.66
2023-03-22T10:33:24.691Z,100390.50
2023-03-22T10:34:31.184Z,100385.47
2023-03-22T10:35:36.277Z,100392.00
2023-03-22T10:36:47.421Z,100389.66
2023-03-22T10:37:54.227Z,100381.94
2023-03-22T10:39:04.245Z,100389.28
2023-03-22T10:40:15.003Z,100396.66
2023-03-22T10:41:25.060Z,100391.78
2023-03-22T10:42:42.065Z,100394.94
2023-03-22T10:43:47.263Z,100401.44
2023-03-22T10:44:53.099Z,100396.28
2023-03-22T10:45:57.020Z,100398.25
2023-03-22T10:47:07.831Z,100401.97
2023-03-22T10:48:18.025Z,100397.94
2023-03-22T10:49:27.642Z,100403.59
2023-03-22T10:50:33.469Z,100401.25
2023-03-22T10:51:40.341Z,100401.06
2023-03-22T10:52:50.715Z,100398.41
2023-03-22T10:53:54.825Z,100400.94
2023-03-22T10:55:02.285Z,100392.72
2023-03-22T10:56:18.706Z,100390.91
2023-03-22T10:57:20.304Z,100401.78
2023-03-22T10:58:31.139Z,100390.25
2023-03-22T10:59:44.585Z,100400.09
2023-03-22T11:00:49.130Z,100388.56
2023-03-22T11:01:55.573Z,100383.22
2023-03-22T11:03:00.086Z,100387.72
2023-03-22T11:04:09.549Z,100385.22
2023-03-22T11:05:20.699Z,100394.22
2023-03-22T11:06:26.294Z,100394.22
2023-03-22T11:07:31.990Z,100381.69
2023-03-22T11:08:46.761Z,100401.41
2023-03-22T11:09:48.343Z,100394.22
2023-03-22T11:10:52.019Z,100393.22
2023-03-22T11:11:57.484Z,100389.53
2023-03-22T11:13:18.225Z,100397.56
2023-03-22T11:14:27.604Z,100389.53
2023-03-22T11:15:32.673Z,100398.41
2023-03-22T11:16:48.304Z,100398.56
2023-03-22T11:17:50.170Z,100394.22
2023-03-22T11:18:53.891Z,100398.72
2023-03-22T11:19:59.443Z,100390.88
2023-03-22T11:21:07.292Z,100392.53
2023-03-22T11:22:24.514Z,100396.06
2023-03-22T11:23:28.467Z,100391.88
2023-03-22T11:24:33.039Z,100393.19
2023-03-22T11:25:38.170Z,100383.50
2023-03-22T11:26:41.883Z,100384.13
2023-03-22T11:27:51.071Z,100388.16
2023-03-22T11:29:03.166Z,100380.28
2023-03-22T11:30:20.978Z,100387.47
2023-03-22T11:31:50.073Z,100391.28
2023-03-22T11:33:02.023Z,100393.13
2023-03-22T11:34:04.681Z,100389.78
2023-03-22T11:35:14.676Z,100395.13
2023-03-22T11:36:18.473Z,100393.44
2023-03-22T11:37:22.956Z,100381.78
2023-03-22T11:38:29.618Z,100389.59
2023-03-22T11:39:32.584Z,100385.94
2023-03-22T11:40:36.059Z,100390.31
2023-03-22T11:41:41.292Z,100391.81
2023-03-22T11:42:43.131Z,100386.16
2023-03-22T11:43:49.723Z,100384.84
2023-03-22T11:44:52.871Z,100393.50
2023-03-22T11:45:58.745Z,100385.88
2023-03-22T11:47:02.643Z,100390.88
2023-03-22T11:48:18.726Z,100379.88
2023-03-22T11:49:26.885Z,100376.19
2023-03-22T11:50:31.976Z,100377.19
2023-03-22T11:51:36.944Z,100379.88
2023-03-22T11:52:39.642Z,100368.50
2023-03-22T11:53:43.915Z,100369.50
2023-03-22T11:54:47.274Z,100371.16
2023-03-22T11:55:51.317Z,100375.50
2023-03-22T11:56:57.882Z,100370.84
2023-03-22T11:58:00.541Z,100371.69
2023-03-22T11:59:07.256Z,100369.19
2023-03-22T12:00:19.953Z,100372.84
2023-03-22T12:01:41.718Z,100368.81
2023-03-22T12:02:49.650Z,100367.81
2023-03-22T12:04:04.838Z,100365.81
2023-03-22T12:05:13.023Z,100369.19
2023-03-22T12:06:28.555Z,100371.34
2023-03-22T12:07:33.906Z,100359.53
2023-03-22T12:08:43.880Z,100366.03
2023-03-22T12:09:53.320Z,100360.38
2023-03-22T12:11:02.610Z,100363.56
2023-03-22T12:12:10.833Z,100366.88
2023-03-22T12:13:17.256Z,100356.69
2023-03-22T12:14:24.553Z,100358.53
2023-03-22T12:15:30.303Z,100354.72
2023-03-22T12:16:41.060Z,100355.38
2023-03-22T12:17:54.891Z,100353.22
2023-03-22T12:19:06.950Z,100355.72
2023-03-22T12:20:19.345Z,100355.88
2023-03-22T12:21:21.111Z,100355.19
2023-03-22T12:22:30.725Z,100357.22
2023-03-22T12:23:35.868Z,100350.19
2023-03-22T12:24:37.951Z,100349.38
2023-03-22T12:25:43.192Z,100350.38
2023-03-22T12:26:45.689Z,100348.53
2023-03-22T12:27:52.557Z,100346.84
2023-03-22T12:29:08.148Z,100342.66
2023-03-22T12:30:17.195Z,100342.16
2023-03-22T12:31:22.619Z,100341.81
2023-03-22T12:32:30.376Z,100347.31
2023-03-22T12:33:38.307Z,100338.63
2023-03-22T12:34:44.772Z,100349.31
2023-03-22T12:35:49.595Z,100353.00
2023-03-22T12:36:54.702Z,100345.31
2023-03-22T12:38:00.559Z,100342.78
2023-03-22T12:39:05.093Z,100352.13
2023-03-22T12:40:16.680Z,100346.97
2023-03-22T12:41:27.326Z,100348.28
2023-03-22T12:42:35.029Z,100344.25
2023-03-22T12:43:47.838Z,100351.09
2023-03-22T12:45:02.535Z,100347.75
2023-03-22T12:46:11.127Z,100351.72
2023-03-22T12:47:29.598Z,100347.38
2023-03-22T12:48:36.959Z,100352.06
2023-03-22T12:49:44.455Z,100363.75
2023-03-22T12:50:51.230Z,100359.72
2023-03-22T12:51:56.519Z,100358.06
2023-03-22T12:52:59.353Z,100356.38
2023-03-22T12:54:02.149Z,100361.72
2023-03-22T12:55:06.480Z,100357.53
2023-03-22T12:56:11.959Z,100356.03
2023-03-22T12:57:16.611Z,100353.50
2023-03-22T12:58:22.245Z,100356.19